createdAt,value
2023-05-19T00:00:19.786Z,5.43
2023-05-19T00:03:24.614Z,5.87
2023-05-19T00:06:32.085Z,5.17
2023-05-19T00:09:36.418Z,5.47
2023-05-19T00:12:40.698Z,5.97
2023-05-19T00:15:44.984Z,5.60
2023-05-19T00:18:48.718Z,5.50
2023-05-19T00:21:54.075Z,6.03
2023-05-19T00:24:57.560Z,6.10
2023-05-19T00:28:02.518Z,5.30
2023-05-19T00:31:07.335Z,5.93
2023-05-19T00:34:10.876Z,4.80
2023-05-19T00:37:15.836Z,5.30
2023-05-19T00:40:20.182Z,5.50
2023-05-19T00:43:23.759Z,5.63
2023-05-19T00:46:27.598Z,5.33
2023-05-19T00:49:31.140Z,5.50
2023-05-19T00:52:36.343Z,5.83
2023-05-19T00:55:40.665Z,5.63
2023-05-19T00:58:45.479Z,5.10
2023-05-19T01:01:50.139Z,5.47
2023-05-19T01:04:56.314Z,5.73
2023-05-19T01:08:01.492Z,5.53
2023-05-19T01:11:06.788Z,5.40
2023-05-19T01:14:10.706Z,5.83
2023-05-19T01:17:23.219Z,5.63
2023-05-19T01:20:39.892Z,5.60
2023-05-19T01:24:01.577Z,6.20
2023-05-19T01:27:40.630Z,4.73
2023-05-19T01:30:49.704Z,5.90
2023-05-19T01:33:55.328Z,6.00
2023-05-19T01:37:02.276Z,5.50
2023-05-19T01:40:07.505Z,5.97
2023-05-19T01:43:16.452Z,6.20
2023-05-19T01:46:23.234Z,5.53
2023-05-19T01:49:26.864Z,6.07
2023-05-19T01:52:30.602Z,6.77
2023-05-19T01:55:35.506Z,6.00
2023-05-19T01:58:45.806Z,6.07
2023-05-19T02:01:56.336Z,6.33
2023-05-19T02:05:11.089Z,6.57
2023-05-19T02:08:25.453Z,5.83
2023-05-19T02:11:38.835Z,6.07
2023-05-19T02:14:51.187Z,6.13
2023-05-19T02:18:00.353Z,5.10
2023-05-19T02:21:04.433Z,5.77
2023-05-19T02:24:08.832Z,6.40
2023-05-19T02:27:12.360Z,5.30
2023-05-19T02:30:16.902Z,6.47
2023-05-19T02:33:24.704Z,5.57
2023-05-19T02:36:28.291Z,6.20
2023-05-19T02:39:35.276Z,6.50
2023-05-19T02:42:38.933Z,5.57
2023-05-19T02:45:42.605Z,5.37
2023-05-19T02:48:47.526Z,5.80
2023-05-19T02:51:51.139Z,5.60
2023-05-19T02:54:54.834Z,5.40
2023-05-19T02:57:58.533Z,6.03
2023-05-19T03:01:02.653Z,6.27
2023-05-19T03:04:08.786Z,6.33
2023-05-19T03:07:13.395Z,6.73
2023-05-19T03:10:17.216Z,5.83
2023-05-19T03:13:21.795Z,5.63
2023-05-19T03:16:25.754Z,5.70
2023-05-19T03:19:32.572Z,6.40
2023-05-19T03:22:36.858Z,5.97
2023-05-19T03:25:40.499Z,6.77
2023-05-19T03:28:44.220Z,7.07
2023-05-19T03:31:47.773Z,6.40
2023-05-19T03:34:52.889Z,6.73
2023-05-19T03:37:56.447Z,6.27
2023-05-19T03:41:00.128Z,6.93
2023-05-19T03:44:04.002Z,5.97
2023-05-19T03:47:08.262Z,6.50
2023-05-19T03:50:14.001Z,6.23
2023-05-19T03:53:17.621Z,5.73
2023-05-19T03:56:23.741Z,6.20
2023-05-19T03:59:27.359Z,6.37
2023-05-19T04:02:31.699Z,5.90
2023-05-19T04:05:36.832Z,6.17
2023-05-19T04:08:40.849Z,6.00
2023-05-19T04:11:46.592Z,6.17
2023-05-19T04:14:50.153Z,6.13
2023-05-19T04:17:53.811Z,5.60
2023-05-19T04:20:58.890Z,5.87
2023-05-19T04:24:02.628Z,6.07
2023-05-19T04:27:11.949Z,5.97
2023-05-19T04:30:22.612Z,5.87
2023-05-19T04:33:26.466Z,6.10
2023-05-19T04:36:31.378Z,5.37
2023-05-19T04:39:34.915Z,5.63
2023-05-19T04:42:41.368Z,5.80
2023-05-19T04:45:45.010Z,5.47
2023-05-19T04:48:48.591Z,6.10
2023-05-19T04:51:55.892Z,5.90
2023-05-19T04:54:59.754Z,5.67
2023-05-19T04:58:03.317Z,5.70
2023-05-19T05:01:07.010Z,5.53
2023-05-19T05:04:10.764Z,6.13
2023-05-19T05:07:15.837Z,7.17
2023-05-19T05:10:19.534Z,6.47
2023-05-19T05:13:25.686Z,5.73
2023-05-19T05:16:30.193Z,6.07
2023-05-19T05:19:34.772Z,5.87
2023-05-19T05:22:41.038Z,5.90
2023-05-19T05:25:45.890Z,5.60
2023-05-19T05:28:49.481Z,5.67
2023-05-19T05:31:53.184Z,5.40
2023-05-19T05:34:56.949Z,5.50
2023-05-19T05:38:02.829Z,5.90
2023-05-19T05:41:06.615Z,6.20
2023-05-19T05:44:10.250Z,6.60
2023-05-19T05:47:15.439Z,5.43
2023-05-19T05:50:20.452Z,5.23
2023-05-19T05:53:32.235Z,5.80
2023-05-19T05:56:37.390Z,5.10
2023-05-19T05:59:41.029Z,4.90
2023-05-19T06:02:47.682Z,5.33
2023-05-19T06:05:53.078Z,4.83
2023-05-19T06:08:58.046Z,4.93
2023-05-19T06:12:01.654Z,3.87
2023-05-19T06:15:06.301Z,5.40
2023-05-19T06:18:11.147Z,5.20
2023-05-19T06:21:14.947Z,5.00
2023-05-19T06:24:20.171Z,5.13
2023-05-19T06:27:23.738Z,5.17
2023-05-19T06:30:27.420Z,5.07
2023-05-19T06:33:31.130Z,4.93
2023-05-19T06:36:35.932Z,4.90
2023-05-19T06:39:41.007Z,4.70
2023-05-19T06:42:44.573Z,5.00
2023-05-19T06:45:48.164Z,4.77
2023-05-19T06:48:51.698Z,4.93
2023-05-19T06:51:55.323Z,4.87
2023-05-19T06:55:00.280Z,4.17
2023-05-19T06:58:03.999Z,3.80
2023-05-19T07:01:07.727Z,4.10
2023-05-19T07:04:11.437Z,4.77
2023-05-19T07:07:15.057Z,4.10
2023-05-19T07:10:21.529Z,4.10
2023-05-19T07:13:27.350Z,3.50
2023-05-19T07:16:31.337Z,3.17
2023-05-19T07:19:34.997Z,3.53
2023-05-19T07:22:39.956Z,3.43
2023-05-19T07:25:45.071Z,3.90
2023-05-19T07:28:48.654Z,3.60
2023-05-19T07:31:54.285Z,3.60
2023-05-19T07:34:58.103Z,3.70
2023-05-19T07:38:02.407Z,3.27
2023-05-19T07:41:07.506Z,3.63
2023-05-19T07:44:11.181Z,3.37
2023-05-19T07:47:14.756Z,3.47
2023-05-19T07:50:18.326Z,3.60
2023-05-19T07:53:22.758Z,3.23
2023-05-19T07:56:27.882Z,3.67
2023-05-19T07:59:31.735Z,3.47
2023-05-19T08:02:35.319Z,3.50
2023-05-19T08:05:39.230Z,3.20
2023-05-19T08:08:43.341Z,3.50
2023-05-19T08:11:49.381Z,3.27
2023-05-19T08:14:52.959Z,3.70
2023-05-19T08:17:56.857Z,3.37
2023-05-19T08:21:01.479Z,2.93
2023-05-19T08:24:05.486Z,2.90
2023-05-19T08:27:10.584Z,2.20
2023-05-19T08:30:14.661Z,2.80
2023-05-19T08:33:18.183Z,2.40
2023-05-19T08:36:22.081Z,2.43
2023-05-19T08:39:27.403Z,2.40
2023-05-19T08:42:33.174Z,2.30
2023-05-19T08:45:38.663Z,1.93
2023-05-19T08:48:45.445Z,2.30
2023-05-19T08:52:10.912Z,2.00
2023-05-19T08:55:27.860Z,1.87
2023-05-19T08:58:34.809Z,1.67
2023-05-19T09:01:40.341Z,2.13
2023-05-19T09:04:46.173Z,1.60
2023-05-19T09:07:49.974Z,1.60
2023-05-19T09:10:53.529Z,2.23
2023-05-19T09:13:59.252Z,1.20
2023-05-19T09:17:03.440Z,1.43
2023-05-19T09:20:11.537Z,1.67
2023-05-19T09:23:16.272Z,1.80
2023-05-19T09:26:20.841Z,1.43
2023-05-19T09:29:25.957Z,1.70
2023-05-19T09:32:29.924Z,1.57
2023-05-19T09:35:35.826Z,1.50
2023-05-19T09:38:40.765Z,1.30
2023-05-19T09:41:45.488Z,1.50
2023-05-19T09:44:51.746Z,1.40
2023-05-19T09:47:55.439Z,1.40
2023-05-19T09:51:01.452Z,1.40
2023-05-19T09:54:05.587Z,1.80
2023-05-19T09:57:09.078Z,1.80
2023-05-19T10:00:18.577Z,1.30
2023-05-19T10:03:23.983Z,1.50
2023-05-19T10:06:28.121Z,1.10
2023-05-19T10:09:31.667Z,1.63
2023-05-19T10:12:35.497Z,1.40
2023-05-19T10:15:57.267Z,1.50
2023-05-19T10:19:04.024Z,1.30
2023-05-19T10:22:07.601Z,1.43
2023-05-19T10:25:14.412Z,1.10
2023-05-19T10:28:23.817Z,1.60
2023-05-19T10:31:28.978Z,1.20
2023-05-19T10:35:05.370Z,1.40
2023-05-19T10:38:25.419Z,1.50
2023-05-19T10:41:40.278Z,1.60
2023-05-19T10:44:59.673Z,1.40
2023-05-19T10:48:05.016Z,1.37
2023-05-19T10:51:12.275Z,1.27
2023-05-19T10:54:17.146Z,1.27
2023-05-19T10:57:26.562Z,1.50
2023-05-19T11:00:32.117Z,2.07
2023-05-19T11:03:47.166Z,1.10
2023-05-19T11:06:53.639Z,1.80
2023-05-19T11:09:57.189Z,1.60
2023-05-19T11:13:00.904Z,1.50
2023-05-19T11:16:09.497Z,1.30
2023-05-19T11:19:26.838Z,1.40
2023-05-19T11:22:30.391Z,1.30
2023-05-19T11:25:45.723Z,1.10
2023-05-19T11:28:49.821Z,1.23
2023-05-19T11:31:53.835Z,1.30
2023-05-19T11:34:59.256Z,1.27
2023-05-19T11:38:04.416Z,1.53
2023-05-19T11:41:09.110Z,1.43
2023-05-19T11:44:13.195Z,1.30
2023-05-19T11:47:18.385Z,1.63
2023-05-19T11:50:23.731Z,1.60
2023-05-19T11:53:33.358Z,1.40
2023-05-19T11:56:49.896Z,1.20
2023-05-19T11:59:56.948Z,1.33
2023-05-19T12:03:01.088Z,1.27
2023-05-19T12:06:08.677Z,1.40
2023-05-19T12:09:12.661Z,1.63
2023-05-19T12:12:19.110Z,1.40
2023-05-19T12:15:23.716Z,1.43
2023-05-19T12:18:32.702Z,1.30
2023-05-19T12:21:38.062Z,1.37
2023-05-19T12:24:43.044Z,1.33
2023-05-19T12:27:48.686Z,1.33
2023-05-19T12:30:54.624Z,1.47
2023-05-19T12:33:58.201Z,0.80
2023-05-19T12:37:04.315Z,1.33
2023-05-19T12:40:10.278Z,1.40
2023-05-19T12:43:22.197Z,1.30
2023-05-19T12:46:26.838Z,1.33
2023-05-19T12:49:30.479Z,1.20
2023-05-19T12:52:44.224Z,1.10
2023-05-19T12:55:47.831Z,1.10
2023-05-19T12:58:56.183Z,1.17
2023-05-19T13:02:00.460Z,1.67
2023-05-19T13:05:04.951Z,1.03
2023-05-19T13:08:12.238Z,1.20
2023-05-19T13:11:15.862Z,0.90
2023-05-19T13:14:19.689Z,1.20
2023-05-19T13:17:23.628Z,1.17
2023-05-19T13:20:28.662Z,1.03
2023-05-19T13:23:34.862Z,1.07
2023-05-19T13:26:39.516Z,1.47
2023-05-19T13:29:43.051Z,1.10
2023-05-19T13:32:46.795Z,1.50
2023-05-19T13:35:50.699Z,1.17
2023-05-19T13:38:55.636Z,1.20
2023-05-19T13:42:00.070Z,1.20
2023-05-19T13:45:04.846Z,0.80
2023-05-19T13:48:08.712Z,1.20
2023-05-19T13:51:12.551Z,1.43
2023-05-19T13:54:17.609Z,0.93
2023-05-19T13:57:21.186Z,1.47
2023-05-19T14:00:24.908Z,1.27
2023-05-19T14:03:28.582Z,1.60
2023-05-19T14:06:32.260Z,1.90
2023-05-19T14:09:37.901Z,0.93
2023-05-19T14:13:04.905Z,1.33
2023-05-19T14:16:07.633Z,1.10
2023-05-19T14:19:12.116Z,1.97
2023-05-19T14:22:15.766Z,1.17
2023-05-19T14:25:20.905Z,0.97
2023-05-19T14:28:24.477Z,1.47
2023-05-19T14:31:28.202Z,1.07
2023-05-19T14:34:31.794Z,1.07
2023-05-19T14:37:35.327Z,1.10
2023-05-19T14:40:41.533Z,1.20
2023-05-19T14:43:46.959Z,1.27
2023-05-19T14:46:50.895Z,1.57
2023-05-19T14:49:54.525Z,1.30
2023-05-19T14:52:58.765Z,1.80
2023-05-19T14:56:06.285Z,1.00
2023-05-19T14:59:10.026Z,1.30
2023-05-19T15:02:13.593Z,1.53
2023-05-19T15:05:17.383Z,1.17
2023-05-19T15:08:20.976Z,2.17
2023-05-19T15:11:26.241Z,3.37
2023-05-19T15:14:30.986Z,3.67
2023-05-19T15:17:34.789Z,1.20
2023-05-19T15:20:38.444Z,1.23
2023-05-19T15:23:42.031Z,1.40
2023-05-19T15:26:47.640Z,1.50
2023-05-19T15:29:51.155Z,1.30
2023-05-19T15:32:54.835Z,1.47
2023-05-19T15:35:58.969Z,1.80
2023-05-19T15:39:03.853Z,1.53
2023-05-19T15:42:08.920Z,1.43
2023-05-19T15:45:12.687Z,1.30
2023-05-19T15:48:16.379Z,1.53
2023-05-19T15:51:20.176Z,1.50
2023-05-19T15:54:23.764Z,2.17
2023-05-19T15:57:28.716Z,1.33
2023-05-19T16:00:32.594Z,1.13
2023-05-19T16:03:36.486Z,1.30
2023-05-19T16:06:40.242Z,1.47
2023-05-19T16:09:43.798Z,1.67
2023-05-19T16:12:48.674Z,1.37
2023-05-19T16:15:54.454Z,1.30
2023-05-19T16:18:58.235Z,1.27
2023-05-19T16:22:01.897Z,1.30
2023-05-19T16:25:06.959Z,1.43
2023-05-19T16:28:11.865Z,1.47
2023-05-19T16:31:15.712Z,1.43
2023-05-19T16:34:19.375Z,1.20
2023-05-19T16:37:22.930Z,1.60
2023-05-19T16:40:29.460Z,1.60
2023-05-19T16:43:37.235Z,1.57
2023-05-19T16:46:40.966Z,1.30
2023-05-19T16:49:44.576Z,1.50
2023-05-19T16:52:48.225Z,1.43
2023-05-19T16:55:51.889Z,1.37
2023-05-19T16:58:56.828Z,1.20
2023-05-19T17:02:00.511Z,1.47
2023-05-19T17:05:04.386Z,1.20
2023-05-19T17:08:08.057Z,1.20
2023-05-19T17:11:11.901Z,1.47
2023-05-19T17:14:17.201Z,1.33
2023-05-19T17:17:20.799Z,1.43
2023-05-19T17:20:24.404Z,1.20
2023-05-19T17:23:27.902Z,1.43
2023-05-19T17:26:31.428Z,1.33
2023-05-19T17:29:36.956Z,1.50
2023-05-19T17:32:40.930Z,1.90
2023-05-19T17:35:44.629Z,1.50
2023-05-19T17:38:48.194Z,1.00
2023-05-19T17:41:51.723Z,1.17
2023-05-19T17:44:56.692Z,1.07
2023-05-19T17:48:00.447Z,1.73
2023-05-19T17:51:05.845Z,1.27
2023-05-19T17:54:10.453Z,1.50
2023-05-19T17:57:18.232Z,1.17
2023-05-19T18:00:25.349Z,1.33
2023-05-19T18:03:30.508Z,1.67
2023-05-19T18:06:36.224Z,1.33
2023-05-19T18:09:44.745Z,1.50
2023-05-19T18:12:48.366Z,1.53
2023-05-19T18:15:54.039Z,1.30
2023-05-19T18:18:57.705Z,1.53
2023-05-19T18:22:01.406Z,1.77
2023-05-19T18:25:05.570Z,1.80
2023-05-19T18:28:09.677Z,1.50
2023-05-19T18:31:19.537Z,1.17
2023-05-19T18:34:23.535Z,1.73
2023-05-19T18:37:28.449Z,1.20
2023-05-19T18:40:32.288Z,1.40
2023-05-19T18:43:36.265Z,1.30
2023-05-19T18:46:41.249Z,1.10
2023-05-19T18:49:44.946Z,1.40
2023-05-19T18:52:48.545Z,1.50
2023-05-19T18:55:52.243Z,1.60
2023-05-19T18:58:56.379Z,1.83
2023-05-19T19:02:01.302Z,1.87
2023-05-19T19:05:09.362Z,1.67
2023-05-19T19:08:13.172Z,1.50
2023-05-19T19:11:17.010Z,1.50
2023-05-19T19:14:20.750Z,1.70
2023-05-19T19:17:26.790Z,1.50
2023-05-19T19:20:30.989Z,1.50
2023-05-19T19:23:35.169Z,1.70
2023-05-19T19:26:38.744Z,1.20
2023-05-19T19:29:42.249Z,1.23
2023-05-19T19:32:47.241Z,1.77
2023-05-19T19:35:51.084Z,1.50
2023-05-19T19:38:54.714Z,1.37
2023-05-19T19:41:58.581Z,1.80
2023-05-19T19:45:02.403Z,1.33
2023-05-19T19:48:08.297Z,1.40
2023-05-19T19:51:11.871Z,1.90
2023-05-19T19:54:15.337Z,1.40
2023-05-19T19:57:19.227Z,1.50
2023-05-19T20:00:22.994Z,1.43
2023-05-19T20:03:28.736Z,1.60
2023-05-19T20:06:33.431Z,1.47
2023-05-19T20:09:37.138Z,1.90
2023-05-19T20:12:42.619Z,1.27
2023-05-19T20:15:48.930Z,1.30
2023-05-19T20:18:54.342Z,1.60
2023-05-19T20:21:58.030Z,1.40
2023-05-19T20:25:01.598Z,1.40
2023-05-19T20:28:05.478Z,1.37
2023-05-19T20:31:09.525Z,1.80
2023-05-19T20:34:14.585Z,1.40
2023-05-19T20:37:25.080Z,1.30
2023-05-19T20:40:29.654Z,1.23
2023-05-19T20:43:34.125Z,1.73
2023-05-19T20:46:37.858Z,1.57
2023-05-19T20:49:53.888Z,1.40
2023-05-19T20:52:57.559Z,1.93
2023-05-19T20:56:01.097Z,1.50
2023-05-19T20:59:04.837Z,1.20
2023-05-19T21:02:08.835Z,1.33
2023-05-19T21:05:13.985Z,1.20
2023-05-19T21:08:17.634Z,1.13
2023-05-19T21:11:22.574Z,1.10
2023-05-19T21:14:26.481Z,1.47
2023-05-19T21:17:30.366Z,1.43
2023-05-19T21:20:35.686Z,1.30
2023-05-19T21:23:39.440Z,1.30
2023-05-19T21:26:44.360Z,1.20
2023-05-19T21:29:48.048Z,1.20
2023-05-19T21:32:51.652Z,1.30
2023-05-19T21:35:58.368Z,1.33
2023-05-19T21:39:01.872Z,0.80
2023-05-19T21:42:06.452Z,1.43
2023-05-19T21:45:11.188Z,1.27
2023-05-19T21:48:14.957Z,1.30
2023-05-19T21:51:19.966Z,1.20
2023-05-19T21:54:23.442Z,1.00
2023-05-19T21:57:26.962Z,1.37
2023-05-19T22:00:30.513Z,1.13
2023-05-19T22:03:34.011Z,1.13
2023-05-19T22:06:39.156Z,0.93
2023-05-19T22:09:42.682Z,1.57
2023-05-19T22:12:46.297Z,1.00
2023-05-19T22:15:50.040Z,1.37
2023-05-19T22:18:53.726Z,1.27
2023-05-19T22:22:09.658Z,1.43
2023-05-19T22:25:17.619Z,1.10
2023-05-19T22:28:21.226Z,1.10
2023-05-19T22:31:24.950Z,1.13
2023-05-19T22:34:28.488Z,1.13
2023-05-19T22:37:33.449Z,0.97
2023-05-19T22:40:37.163Z,1.10
2023-05-19T22:43:40.708Z,1.17
2023-05-19T22:46:45.299Z,1.07
2023-05-19T22:49:50.921Z,1.30
2023-05-19T22:52:55.989Z,1.13
2023-05-19T22:55:59.679Z,1.30
2023-05-19T22:59:03.237Z,1.30
2023-05-19T23:02:08.706Z,1.30
2023-05-19T23:05:12.415Z,1.00
2023-05-19T23:08:17.433Z,1.30
2023-05-19T23:11:21.932Z,1.00
2023-05-19T23:14:25.998Z,1.23
2023-05-19T23:17:29.499Z,0.87
2023-05-19T23:20:34.269Z,1.53
2023-05-19T23:23:39.232Z,0.80
2023-05-19T23:26:44.226Z,0.93
2023-05-19T23:29:50.022Z,1.07
2023-05-19T23:32:53.515Z,1.13
2023-05-19T23:35:57.102Z,1.10
2023-05-19T23:39:03.120Z,1.00
2023-05-19T23:42:07.548Z,0.90
2023-05-19T23:45:11.881Z,0.70
2023-05-19T23:48:15.462Z,0.90
2023-05-19T23:51:19.113Z,1.03
2023-05-19T23:54:24.015Z,0.90
2023-05-19T23:57:27.570Z,0.63
